sensor_id;sensor_type;location;lat;lon;timestamp;P1;durP1;ratioP1;P2;durP2;ratioP2
8036;SDS011;4061;51.360;7.340;2022-08-21T00:02:26;6.72;;;2.90;;
8036;SDS011;4061;51.360;7.340;2022-08-21T00:04:54;11.00;;;2.97;;
8036;SDS011;4061;51.360;7.340;2022-08-21T00:07:21;5.78;;;2.70;;
8036;SDS011;4061;51.360;7.340;2022-08-21T00:09:49;8.82;;;3.00;;
8036;SDS011;4061;51.360;7.340;2022-08-21T00:12:16;8.15;;;2.65;;
8036;SDS011;4061;51.360;7.340;2022-08-21T00:14:45;10.40;;;3.55;;
8036;SDS011;4061;51.360;7.340;2022-08-21T00:17:12;8.70;;;3.30;;
8036;SDS011;4061;51.360;7.340;2022-08-21T00:19:39;5.43;;;3.35;;
8036;SDS011;4061;51.360;7.340;2022-08-21T00:22:06;11.00;;;3.17;;
8036;SDS011;4061;51.360;7.340;2022-08-21T00:24:34;9.35;;;3.20;;
8036;SDS011;4061;51.360;7.340;2022-08-21T00:27:01;10.10;;;3.15;;
8036;SDS011;4061;51.360;7.340;2022-08-21T00:29:28;9.60;;;3.03;;
8036;SDS011;4061;51.360;7.340;2022-08-21T00:31:56;10.45;;;3.97;;
8036;SDS011;4061;51.360;7.340;2022-08-21T00:34:25;6.60;;;3.40;;
8036;SDS011;4061;51.360;7.340;2022-08-21T00:36:52;15.88;;;3.58;;
8036;SDS011;4061;51.360;7.340;2022-08-21T00:39:19;6.25;;;3.45;;
8036;SDS011;4061;51.360;7.340;2022-08-21T00:41:46;12.40;;;3.78;;
8036;SDS011;4061;51.360;7.340;2022-08-21T00:44:14;9.65;;;3.60;;
8036;SDS011;4061;51.360;7.340;2022-08-21T00:46:42;8.85;;;3.70;;
8036;SDS011;4061;51.360;7.340;2022-08-21T00:49:11;6.70;;;3.97;;
8036;SDS011;4061;51.360;7.340;2022-08-21T00:51:40;4.80;;;3.78;;
8036;SDS011;4061;51.360;7.340;2022-08-21T00:54:08;13.88;;;4.50;;
8036;SDS011;4061;51.360;7.340;2022-08-21T00:56:36;10.77;;;4.07;;
8036;SDS011;4061;51.360;7.340;2022-08-21T00:59:03;10.43;;;4.30;;
8036;SDS011;4061;51.360;7.340;2022-08-21T01:01:32;7.28;;;4.28;;
8036;SDS011;4061;51.360;7.340;2022-08-21T01:03:59;7.90;;;4.40;;
8036;SDS011;4061;51.360;7.340;2022-08-21T01:06:28;8.18;;;4.40;;
8036;SDS011;4061;51.360;7.340;2022-08-21T01:08:55;8.10;;;4.10;;
8036;SDS011;4061;51.360;7.340;2022-08-21T01:11:22;8.52;;;3.72;;
8036;SDS011;4061;51.360;7.340;2022-08-21T01:13:49;15.60;;;5.15;;
8036;SDS011;4061;51.360;7.340;2022-08-21T01:16:17;4.88;;;3.50;;
8036;SDS011;4061;51.360;7.340;2022-08-21T01:21:15;6.68;;;3.60;;
8036;SDS011;4061;51.360;7.340;2022-08-21T01:23:44;10.10;;;3.70;;
8036;SDS011;4061;51.360;7.340;2022-08-21T01:26:12;11.55;;;3.85;;
8036;SDS011;4061;51.360;7.340;2022-08-21T01:28:42;7.65;;;4.05;;
8036;SDS011;4061;51.360;7.340;2022-08-21T01:31:14;6.40;;;3.53;;
8036;SDS011;4061;51.360;7.340;2022-08-21T01:33:41;11.88;;;4.70;;
8036;SDS011;4061;51.360;7.340;2022-08-21T01:36:08;11.30;;;3.85;;
8036;SDS011;4061;51.360;7.340;2022-08-21T01:38:37;8.93;;;3.72;;
8036;SDS011;4061;51.360;7.340;2022-08-21T01:41:04;5.65;;;3.70;;
8036;SDS011;4061;51.360;7.340;2022-08-21T01:43:32;9.88;;;3.70;;
8036;SDS011;4061;51.360;7.340;2022-08-21T01:45:59;9.23;;;3.08;;
8036;SDS011;4061;51.360;7.340;2022-08-21T01:48:26;11.40;;;3.97;;
8036;SDS011;4061;51.360;7.340;2022-08-21T01:50:53;12.55;;;3.92;;
8036;SDS011;4061;51.360;7.340;2022-08-21T01:53:20;8.38;;;3.90;;
8036;SDS011;4061;51.360;7.340;2022-08-21T01:55:49;8.82;;;4.20;;
8036;SDS011;4061;51.360;7.340;2022-08-21T01:58:16;5.90;;;4.10;;
8036;SDS011;4061;51.360;7.340;2022-08-21T02:00:43;6.63;;;3.67;;
8036;SDS011;4061;51.360;7.340;2022-08-21T02:03:10;14.18;;;3.35;;
8036;SDS011;4061;51.360;7.340;2022-08-21T02:05:37;10.60;;;4.65;;
8036;SDS011;4061;51.360;7.340;2022-08-21T02:08:05;10.45;;;4.45;;
8036;SDS011;4061;51.360;7.340;2022-08-21T02:10:33;12.35;;;4.45;;
8036;SDS011;4061;51.360;7.340;2022-08-21T02:13:01;11.32;;;4.10;;
8036;SDS011;4061;51.360;7.340;2022-08-21T02:15:29;8.75;;;4.03;;
8036;SDS011;4061;51.360;7.340;2022-08-21T02:17:58;11.90;;;4.28;;
8036;SDS011;4061;51.360;7.340;2022-08-21T02:20:26;19.08;;;4.20;;
8036;SDS011;4061;51.360;7.340;2022-08-21T02:22:54;16.95;;;4.90;;
8036;SDS011;4061;51.360;7.340;2022-08-21T02:25:22;10.07;;;4.40;;
8036;SDS011;4061;51.360;7.340;2022-08-21T02:27:49;9.30;;;4.45;;
8036;SDS011;4061;51.360;7.340;2022-08-21T02:30:19;4.72;;;4.03;;
8036;SDS011;4061;51.360;7.340;2022-08-21T02:32:47;6.70;;;4.70;;
8036;SDS011;4061;51.360;7.340;2022-08-21T02:35:14;17.00;;;4.63;;
8036;SDS011;4061;51.360;7.340;2022-08-21T02:37:42;7.72;;;4.88;;
8036;SDS011;4061;51.360;7.340;2022-08-21T02:40:10;19.73;;;5.13;;
8036;SDS011;4061;51.360;7.340;2022-08-21T02:42:38;13.57;;;5.13;;
8036;SDS011;4061;51.360;7.340;2022-08-21T02:45:06;10.00;;;4.82;;
8036;SDS011;4061;51.360;7.340;2022-08-21T02:47:35;9.90;;;4.25;;
8036;SDS011;4061;51.360;7.340;2022-08-21T02:50:03;9.43;;;4.78;;
8036;SDS011;4061;51.360;7.340;2022-08-21T02:52:30;10.52;;;4.60;;
8036;SDS011;4061;51.360;7.340;2022-08-21T02:54:58;9.40;;;4.47;;
8036;SDS011;4061;51.360;7.340;2022-08-21T02:57:25;9.15;;;4.93;;
8036;SDS011;4061;51.360;7.340;2022-08-21T02:59:52;10.30;;;4.75;;
8036;SDS011;4061;51.360;7.340;2022-08-21T03:02:20;6.15;;;4.25;;
8036;SDS011;4061;51.360;7.340;2022-08-21T03:04:48;12.40;;;4.78;;
8036;SDS011;4061;51.360;7.340;2022-08-21T03:07:16;12.73;;;4.57;;
8036;SDS011;4061;51.360;7.340;2022-08-21T03:09:43;7.97;;;4.60;;
8036;SDS011;4061;51.360;7.340;2022-08-21T03:12:10;10.30;;;5.03;;
8036;SDS011;4061;51.360;7.340;2022-08-21T03:14:37;13.20;;;4.10;;
8036;SDS011;4061;51.360;7.340;2022-08-21T03:17:05;8.45;;;4.60;;
8036;SDS011;4061;51.360;7.340;2022-08-21T03:19:32;7.72;;;4.70;;
8036;SDS011;4061;51.360;7.340;2022-08-21T03:22:01;11.07;;;5.03;;
8036;SDS011;4061;51.360;7.340;2022-08-21T03:24:28;8.45;;;4.82;;
8036;SDS011;4061;51.360;7.340;2022-08-21T03:26:55;12.27;;;4.20;;
8036;SDS011;4061;51.360;7.340;2022-08-21T03:29:22;11.23;;;5.28;;
8036;SDS011;4061;51.360;7.340;2022-08-21T03:31:49;9.38;;;4.65;;
8036;SDS011;4061;51.360;7.340;2022-08-21T03:34:17;9.77;;;4.75;;
8036;SDS011;4061;51.360;7.340;2022-08-21T03:36:44;12.70;;;4.95;;
8036;SDS011;4061;51.360;7.340;2022-08-21T03:39:13;9.82;;;4.63;;
8036;SDS011;4061;51.360;7.340;2022-08-21T03:41:40;13.25;;;4.82;;
8036;SDS011;4061;51.360;7.340;2022-08-21T03:44:07;12.07;;;4.43;;
8036;SDS011;4061;51.360;7.340;2022-08-21T03:46:34;21.23;;;5.63;;
8036;SDS011;4061;51.360;7.340;2022-08-21T03:49:01;11.30;;;4.40;;
8036;SDS011;4061;51.360;7.340;2022-08-21T03:51:29;13.75;;;5.47;;
8036;SDS011;4061;51.360;7.340;2022-08-21T03:53:57;10.07;;;4.70;;
8036;SDS011;4061;51.360;7.340;2022-08-21T03:56:25;15.77;;;4.55;;
8036;SDS011;4061;51.360;7.340;2022-08-21T03:58:53;9.48;;;4.78;;
8036;SDS011;4061;51.360;7.340;2022-08-21T04:01:20;7.15;;;5.00;;
8036;SDS011;4061;51.360;7.340;2022-08-21T04:03:47;16.33;;;5.38;;
8036;SDS011;4061;51.360;7.340;2022-08-21T04:06:15;17.73;;;5.25;;
8036;SDS011;4061;51.360;7.340;2022-08-21T04:08:43;12.70;;;4.88;;
8036;SDS011;4061;51.360;7.340;2022-08-21T04:11:10;14.50;;;5.13;;
8036;SDS011;4061;51.360;7.340;2022-08-21T04:13:38;10.73;;;4.97;;
8036;SDS011;4061;51.360;7.340;2022-08-21T04:16:06;12.27;;;4.50;;
8036;SDS011;4061;51.360;7.340;2022-08-21T04:18:33;6.75;;;4.55;;
8036;SDS011;4061;51.360;7.340;2022-08-21T04:21:01;14.25;;;4.65;;
8036;SDS011;4061;51.360;7.340;2022-08-21T04:23:28;15.75;;;5.05;;
8036;SDS011;4061;51.360;7.340;2022-08-21T04:25:56;8.57;;;4.45;;
8036;SDS011;4061;51.360;7.340;2022-08-21T04:28:24;9.73;;;4.45;;
8036;SDS011;4061;51.360;7.340;2022-08-21T04:30:52;6.78;;;5.00;;
8036;SDS011;4061;51.360;7.340;2022-08-21T04:33:20;10.18;;;5.03;;
8036;SDS011;4061;51.360;7.340;2022-08-21T04:35:48;9.00;;;4.72;;
8036;SDS011;4061;51.360;7.340;2022-08-21T04:38:15;10.95;;;4.70;;
8036;SDS011;4061;51.360;7.340;2022-08-21T04:40:42;13.77;;;4.68;;
8036;SDS011;4061;51.360;7.340;2022-08-21T04:43:10;11.23;;;4.18;;
8036;SDS011;4061;51.360;7.340;2022-08-21T04:45:37;9.85;;;4.60;;
8036;SDS011;4061;51.360;7.340;2022-08-21T04:48:07;16.15;;;4.55;;
8036;SDS011;4061;51.360;7.340;2022-08-21T04:50:36;6.93;;;4.45;;
8036;SDS011;4061;51.360;7.340;2022-08-21T04:53:04;8.55;;;3.92;;
8036;SDS011;4061;51.360;7.340;2022-08-21T04:55:32;17.88;;;5.10;;
8036;SDS011;4061;51.360;7.340;2022-08-21T04:57:59;11.18;;;4.90;;
8036;SDS011;4061;51.360;7.340;2022-08-21T05:00:26;9.63;;;4.60;;
8036;SDS011;4061;51.360;7.340;2022-08-21T05:02:54;10.00;;;4.35;;
8036;SDS011;4061;51.360;7.340;2022-08-21T05:05:25;10.18;;;4.88;;
8036;SDS011;4061;51.360;7.340;2022-08-21T05:07:54;10.20;;;4.50;;
8036;SDS011;4061;51.360;7.340;2022-08-21T05:10:22;6.00;;;4.30;;
8036;SDS011;4061;51.360;7.340;2022-08-21T05:12:49;11.02;;;5.10;;
8036;SDS011;4061;51.360;7.340;2022-08-21T05:15:16;6.80;;;4.30;;
8036;SDS011;4061;51.360;7.340;2022-08-21T05:17:43;9.98;;;4.53;;
8036;SDS011;4061;51.360;7.340;2022-08-21T05:20:11;6.45;;;4.05;;
8036;SDS011;4061;51.360;7.340;2022-08-21T05:22:40;6.82;;;4.03;;
8036;SDS011;4061;51.360;7.340;2022-08-21T05:25:07;7.15;;;3.55;;
8036;SDS011;4061;51.360;7.340;2022-08-21T05:27:35;9.35;;;3.58;;
8036;SDS011;4061;51.360;7.340;2022-08-21T05:30:03;5.85;;;3.05;;
8036;SDS011;4061;51.360;7.340;2022-08-21T05:32:30;9.80;;;3.25;;
8036;SDS011;4061;51.360;7.340;2022-08-21T05:34:58;8.98;;;3.58;;
8036;SDS011;4061;51.360;7.340;2022-08-21T05:37:25;9.48;;;3.42;;
8036;SDS011;4061;51.360;7.340;2022-08-21T05:39:53;7.38;;;3.53;;
8036;SDS011;4061;51.360;7.340;2022-08-21T05:42:20;10.10;;;3.45;;
8036;SDS011;4061;51.360;7.340;2022-08-21T05:44:47;4.43;;;3.13;;
8036;SDS011;4061;51.360;7.340;2022-08-21T05:47:14;5.88;;;2.85;;
8036;SDS011;4061;51.360;7.340;2022-08-21T05:49:42;7.05;;;2.72;;
8036;SDS011;4061;51.360;7.340;2022-08-21T05:52:09;9.25;;;3.42;;
8036;SDS011;4061;51.360;7.340;2022-08-21T05:54:36;6.47;;;2.88;;
8036;SDS011;4061;51.360;7.340;2022-08-21T05:57:05;7.15;;;2.95;;
8036;SDS011;4061;51.360;7.340;2022-08-21T05:59:33;8.43;;;3.25;;
8036;SDS011;4061;51.360;7.340;2022-08-21T06:02:01;4.10;;;2.50;;
8036;SDS011;4061;51.360;7.340;2022-08-21T06:04:28;7.85;;;3.38;;
8036;SDS011;4061;51.360;7.340;2022-08-21T06:06:55;12.32;;;2.90;;
8036;SDS011;4061;51.360;7.340;2022-08-21T06:09:22;10.40;;;2.65;;
8036;SDS011;4061;51.360;7.340;2022-08-21T06:11:50;6.82;;;2.60;;
8036;SDS011;4061;51.360;7.340;2022-08-21T06:14:18;5.45;;;2.85;;
8036;SDS011;4061;51.360;7.340;2022-08-21T06:16:45;10.70;;;3.10;;
8036;SDS011;4061;51.360;7.340;2022-08-21T06:19:12;4.95;;;2.92;;
8036;SDS011;4061;51.360;7.340;2022-08-21T06:21:40;6.75;;;3.72;;
8036;SDS011;4061;51.360;7.340;2022-08-21T06:24:07;5.03;;;3.05;;
8036;SDS011;4061;51.360;7.340;2022-08-21T06:26:34;6.97;;;3.45;;
8036;SDS011;4061;51.360;7.340;2022-08-21T06:29:02;6.47;;;3.15;;
8036;SDS011;4061;51.360;7.340;2022-08-21T06:31:30;5.65;;;3.85;;
8036;SDS011;4061;51.360;7.340;2022-08-21T06:33:57;6.95;;;3.80;;
8036;SDS011;4061;51.360;7.340;2022-08-21T06:36:25;8.10;;;3.38;;
8036;SDS011;4061;51.360;7.340;2022-08-21T06:38:52;10.55;;;4.30;;
8036;SDS011;4061;51.360;7.340;2022-08-21T06:41:19;11.63;;;4.38;;
8036;SDS011;4061;51.360;7.340;2022-08-21T06:43:47;10.00;;;4.72;;
8036;SDS011;4061;51.360;7.340;2022-08-21T06:46:14;17.65;;;5.53;;
8036;SDS011;4061;51.360;7.340;2022-08-21T06:48:42;14.07;;;4.57;;
8036;SDS011;4061;51.360;7.340;2022-08-21T06:51:09;8.13;;;5.07;;
8036;SDS011;4061;51.360;7.340;2022-08-21T06:53:37;9.35;;;4.68;;
8036;SDS011;4061;51.360;7.340;2022-08-21T06:56:04;11.85;;;4.90;;
8036;SDS011;4061;51.360;7.340;2022-08-21T06:58:31;13.25;;;4.70;;
8036;SDS011;4061;51.360;7.340;2022-08-21T07:00:58;14.75;;;5.05;;
8036;SDS011;4061;51.360;7.340;2022-08-21T07:03:27;13.30;;;5.60;;
8036;SDS011;4061;51.360;7.340;2022-08-21T07:05:57;8.95;;;4.75;;
8036;SDS011;4061;51.360;7.340;2022-08-21T07:08:24;12.38;;;5.28;;
8036;SDS011;4061;51.360;7.340;2022-08-21T07:10:52;10.32;;;4.63;;
8036;SDS011;4061;51.360;7.340;2022-08-21T07:13:20;10.25;;;5.03;;
8036;SDS011;4061;51.360;7.340;2022-08-21T07:15:47;9.75;;;4.85;;
8036;SDS011;4061;51.360;7.340;2022-08-21T07:18:14;37.60;;;5.07;;
8036;SDS011;4061;51.360;7.340;2022-08-21T07:20:42;17.38;;;4.82;;
8036;SDS011;4061;51.360;7.340;2022-08-21T07:23:11;11.25;;;5.47;;
8036;SDS011;4061;51.360;7.340;2022-08-21T07:25:39;11.13;;;5.53;;
8036;SDS011;4061;51.360;7.340;2022-08-21T07:28:06;9.60;;;4.50;;
8036;SDS011;4061;51.360;7.340;2022-08-21T07:30:33;11.70;;;4.30;;
8036;SDS011;4061;51.360;7.340;2022-08-21T07:33:00;11.40;;;4.78;;
8036;SDS011;4061;51.360;7.340;2022-08-21T07:35:28;12.57;;;4.35;;
8036;SDS011;4061;51.360;7.340;2022-08-21T07:37:56;10.43;;;4.53;;
8036;SDS011;4061;51.360;7.340;2022-08-21T07:40:24;13.43;;;4.97;;
8036;SDS011;4061;51.360;7.340;2022-08-21T07:42:51;14.95;;;5.22;;
8036;SDS011;4061;51.360;7.340;2022-08-21T07:45:19;10.82;;;4.95;;
8036;SDS011;4061;51.360;7.340;2022-08-21T07:47:47;11.05;;;4.18;;
8036;SDS011;4061;51.360;7.340;2022-08-21T07:50:14;5.22;;;3.60;;
8036;SDS011;4061;51.360;7.340;2022-08-21T07:52:42;9.80;;;4.32;;
8036;SDS011;4061;51.360;7.340;2022-08-21T07:55:10;12.90;;;4.90;;
8036;SDS011;4061;51.360;7.340;2022-08-21T07:57:39;11.93;;;4.07;;
8036;SDS011;4061;51.360;7.340;2022-08-21T08:00:07;8.30;;;4.20;;
8036;SDS011;4061;51.360;7.340;2022-08-21T08:02:35;6.40;;;4.03;;
8036;SDS011;4061;51.360;7.340;2022-08-21T08:05:03;9.25;;;3.97;;
8036;SDS011;4061;51.360;7.340;2022-08-21T08:07:30;5.03;;;3.72;;
8036;SDS011;4061;51.360;7.340;2022-08-21T08:09:57;5.75;;;3.30;;
8036;SDS011;4061;51.360;7.340;2022-08-21T08:12:24;11.38;;;3.80;;
8036;SDS011;4061;51.360;7.340;2022-08-21T08:14:55;9.70;;;2.70;;
8036;SDS011;4061;51.360;7.340;2022-08-21T08:17:22;5.88;;;2.38;;
8036;SDS011;4061;51.360;7.340;2022-08-21T08:19:50;8.48;;;2.55;;
8036;SDS011;4061;51.360;7.340;2022-08-21T08:22:19;8.20;;;2.33;;
8036;SDS011;4061;51.360;7.340;2022-08-21T08:24:47;2.83;;;2.00;;
8036;SDS011;4061;51.360;7.340;2022-08-21T08:27:15;6.10;;;2.58;;
8036;SDS011;4061;51.360;7.340;2022-08-21T08:29:42;7.97;;;2.65;;
8036;SDS011;4061;51.360;7.340;2022-08-21T08:32:11;5.13;;;1.88;;
8036;SDS011;4061;51.360;7.340;2022-08-21T08:34:38;4.45;;;1.50;;
8036;SDS011;4061;51.360;7.340;2022-08-21T08:37:06;2.88;;;1.17;;
8036;SDS011;4061;51.360;7.340;2022-08-21T08:39:34;11.63;;;2.15;;
8036;SDS011;4061;51.360;7.340;2022-08-21T08:42:03;5.47;;;1.42;;
8036;SDS011;4061;51.360;7.340;2022-08-21T08:44:34;6.38;;;1.90;;
8036;SDS011;4061;51.360;7.340;2022-08-21T08:47:02;6.13;;;1.80;;
8036;SDS011;4061;51.360;7.340;2022-08-21T08:49:34;8.50;;;1.95;;
8036;SDS011;4061;51.360;7.340;2022-08-21T08:52:05;6.15;;;1.98;;
8036;SDS011;4061;51.360;7.340;2022-08-21T08:54:35;6.07;;;1.67;;
8036;SDS011;4061;51.360;7.340;2022-08-21T08:57:09;4.07;;;1.88;;
8036;SDS011;4061;51.360;7.340;2022-08-21T08:59:40;9.20;;;1.75;;
8036;SDS011;4061;51.360;7.340;2022-08-21T09:02:11;5.45;;;1.77;;
8036;SDS011;4061;51.360;7.340;2022-08-21T09:04:40;5.78;;;1.35;;
8036;SDS011;4061;51.360;7.340;2022-08-21T09:07:10;5.32;;;1.27;;
8036;SDS011;4061;51.360;7.340;2022-08-21T09:09:46;5.65;;;1.38;;
8036;SDS011;4061;51.360;7.340;2022-08-21T09:12:16;6.75;;;1.55;;
8036;SDS011;4061;51.360;7.340;2022-08-21T09:14:47;4.45;;;1.23;;
8036;SDS011;4061;51.360;7.340;2022-08-21T09:17:29;5.25;;;1.58;;
8036;SDS011;4061;51.360;7.340;2022-08-21T09:20:03;5.03;;;1.15;;
8036;SDS011;4061;51.360;7.340;2022-08-21T09:22:43;3.53;;;0.95;;
8036;SDS011;4061;51.360;7.340;2022-08-21T09:25:15;3.22;;;1.00;;
8036;SDS011;4061;51.360;7.340;2022-08-21T09:27:47;5.20;;;1.50;;
8036;SDS011;4061;51.360;7.340;2022-08-21T09:30:15;6.05;;;1.35;;
8036;SDS011;4061;51.360;7.340;2022-08-21T09:32:42;2.83;;;1.20;;
8036;SDS011;4061;51.360;7.340;2022-08-21T09:35:12;1.45;;;1.15;;
8036;SDS011;4061;51.360;7.340;2022-08-21T09:37:46;3.90;;;1.00;;
8036;SDS011;4061;51.360;7.340;2022-08-21T09:40:19;3.80;;;1.02;;
8036;SDS011;4061;51.360;7.340;2022-08-21T09:42:55;6.40;;;1.20;;
8036;SDS011;4061;51.360;7.340;2022-08-21T09:45:23;1.58;;;1.08;;
8036;SDS011;4061;51.360;7.340;2022-08-21T09:47:50;7.65;;;1.20;;
8036;SDS011;4061;51.360;7.340;2022-08-21T09:50:20;5.80;;;1.23;;
8036;SDS011;4061;51.360;7.340;2022-08-21T09:52:50;5.68;;;0.98;;
8036;SDS011;4061;51.360;7.340;2022-08-21T09:55:20;6.47;;;0.90;;
8036;SDS011;4061;51.360;7.340;2022-08-21T09:58:08;7.60;;;0.90;;
8036;SDS011;4061;51.360;7.340;2022-08-21T10:00:36;12.68;;;1.00;;
8036;SDS011;4061;51.360;7.340;2022-08-21T10:03:10;4.78;;;1.40;;
8036;SDS011;4061;51.360;7.340;2022-08-21T10:05:40;4.93;;;0.82;;
8036;SDS011;4061;51.360;7.340;2022-08-21T10:08:15;2.88;;;1.33;;
8036;SDS011;4061;51.360;7.340;2022-08-21T10:10:43;3.60;;;1.52;;
8036;SDS011;4061;51.360;7.340;2022-08-21T10:13:12;5.93;;;1.30;;
8036;SDS011;4061;51.360;7.340;2022-08-21T10:15:42;3.40;;;1.25;;
8036;SDS011;4061;51.360;7.340;2022-08-21T10:18:15;5.28;;;1.02;;
8036;SDS011;4061;51.360;7.340;2022-08-21T10:20:47;4.88;;;1.33;;
8036;SDS011;4061;51.360;7.340;2022-08-21T10:23:37;3.15;;;1.05;;
8036;SDS011;4061;51.360;7.340;2022-08-21T10:26:08;4.15;;;1.00;;
8036;SDS011;4061;51.360;7.340;2022-08-21T10:28:38;2.67;;;1.08;;
8036;SDS011;4061;51.360;7.340;2022-08-21T10:31:11;1.50;;;0.93;;
8036;SDS011;4061;51.360;7.340;2022-08-21T10:33:45;7.43;;;1.23;;
8036;SDS011;4061;51.360;7.340;2022-08-21T10:36:17;4.90;;;1.23;;
8036;SDS011;4061;51.360;7.340;2022-08-21T10:38:54;4.13;;;1.25;;
8036;SDS011;4061;51.360;7.340;2022-08-21T10:41:24;2.08;;;0.70;;
8036;SDS011;4061;51.360;7.340;2022-08-21T10:44:12;2.45;;;0.98;;
8036;SDS011;4061;51.360;7.340;2022-08-21T10:46:50;4.95;;;0.77;;
8036;SDS011;4061;51.360;7.340;2022-08-21T10:49:22;5.95;;;1.50;;
8036;SDS011;4061;51.360;7.340;2022-08-21T10:51:54;4.63;;;1.08;;
8036;SDS011;4061;51.360;7.340;2022-08-21T10:54:25;3.65;;;0.80;;
8036;SDS011;4061;51.360;7.340;2022-08-21T10:57:02;3.17;;;1.02;;
8036;SDS011;4061;51.360;7.340;2022-08-21T10:59:33;2.15;;;0.90;;
8036;SDS011;4061;51.360;7.340;2022-08-21T11:02:08;2.00;;;0.93;;
8036;SDS011;4061;51.360;7.340;2022-08-21T11:04:41;2.35;;;0.80;;
8036;SDS011;4061;51.360;7.340;2022-08-21T11:07:28;3.25;;;1.13;;
8036;SDS011;4061;51.360;7.340;2022-08-21T11:09:58;11.07;;;1.10;;
8036;SDS011;4061;51.360;7.340;2022-08-21T11:12:31;6.85;;;0.90;;
8036;SDS011;4061;51.360;7.340;2022-08-21T11:15:07;1.42;;;0.80;;
8036;SDS011;4061;51.360;7.340;2022-08-21T11:17:39;2.85;;;1.05;;
8036;SDS011;4061;51.360;7.340;2022-08-21T11:20:12;3.13;;;0.60;;
8036;SDS011;4061;51.360;7.340;2022-08-21T11:22:43;0.82;;;0.80;;
8036;SDS011;4061;51.360;7.340;2022-08-21T11:25:14;2.78;;;1.00;;
8036;SDS011;4061;51.360;7.340;2022-08-21T11:27:44;0.93;;;0.70;;
8036;SDS011;4061;51.360;7.340;2022-08-21T11:30:15;1.50;;;0.60;;
8036;SDS011;4061;51.360;7.340;2022-08-21T11:32:45;3.05;;;0.80;;
8036;SDS011;4061;51.360;7.340;2022-08-21T11:35:23;3.00;;;0.95;;
8036;SDS011;4061;51.360;7.340;2022-08-21T11:37:56;1.98;;;0.47;;
8036;SDS011;4061;51.360;7.340;2022-08-21T11:40:38;2.22;;;0.50;;
8036;SDS011;4061;51.360;7.340;2022-08-21T11:43:10;4.10;;;0.50;;
8036;SDS011;4061;51.360;7.340;2022-08-21T11:45:39;2.95;;;0.85;;
8036;SDS011;4061;51.360;7.340;2022-08-21T11:48:11;2.47;;;0.73;;
8036;SDS011;4061;51.360;7.340;2022-08-21T11:50:42;3.60;;;0.77;;
8036;SDS011;4061;51.360;7.340;2022-08-21T11:53:12;2.28;;;0.57;;
8036;SDS011;4061;51.360;7.340;2022-08-21T11:55:42;6.68;;;0.85;;
8036;SDS011;4061;51.360;7.340;2022-08-21T11:58:14;1.85;;;0.60;;
8036;SDS011;4061;51.360;7.340;2022-08-21T12:00:48;2.83;;;0.65;;
8036;SDS011;4061;51.360;7.340;2022-08-21T12:03:22;4.47;;;0.80;;
8036;SDS011;4061;51.360;7.340;2022-08-21T12:05:53;1.63;;;0.63;;
8036;SDS011;4061;51.360;7.340;2022-08-21T12:08:31;1.85;;;0.60;;
8036;SDS011;4061;51.360;7.340;2022-08-21T12:11:01;2.65;;;0.60;;
8036;SDS011;4061;51.360;7.340;2022-08-21T12:13:32;3.83;;;0.75;;
8036;SDS011;4061;51.360;7.340;2022-08-21T12:16:06;2.83;;;0.90;;
8036;SDS011;4061;51.360;7.340;2022-08-21T12:18:34;1.65;;;0.38;;
8036;SDS011;4061;51.360;7.340;2022-08-21T12:21:04;1.83;;;0.55;;
8036;SDS011;4061;51.360;7.340;2022-08-21T12:23:34;4.55;;;0.50;;
8036;SDS011;4061;51.360;7.340;2022-08-21T12:29:04;2.53;;;0.70;;
8036;SDS011;4061;51.360;7.340;2022-08-21T12:31:33;4.20;;;0.60;;
8036;SDS011;4061;51.360;7.340;2022-08-21T12:34:01;1.23;;;0.60;;
8036;SDS011;4061;51.360;7.340;2022-08-21T12:36:38;0.55;;;0.47;;
8036;SDS011;4061;51.360;7.340;2022-08-21T12:39:13;5.32;;;1.58;;
8036;SDS011;4061;51.360;7.340;2022-08-21T12:41:44;9.63;;;0.82;;
8036;SDS011;4061;51.360;7.340;2022-08-21T12:44:13;2.67;;;1.58;;
8036;SDS011;4061;51.360;7.340;2022-08-21T12:46:44;1.08;;;0.55;;
8036;SDS011;4061;51.360;7.340;2022-08-21T12:49:13;2.90;;;0.98;;
8036;SDS011;4061;51.360;7.340;2022-08-21T12:51:50;0.85;;;0.55;;
8036;SDS011;4061;51.360;7.340;2022-08-21T12:54:23;1.08;;;0.70;;
8036;SDS011;4061;51.360;7.340;2022-08-21T12:56:56;3.22;;;0.50;;
8036;SDS011;4061;51.360;7.340;2022-08-21T12:59:25;2.38;;;0.55;;
8036;SDS011;4061;51.360;7.340;2022-08-21T13:01:52;7.68;;;1.45;;
8036;SDS011;4061;51.360;7.340;2022-08-21T13:04:33;3.30;;;0.52;;
8036;SDS011;4061;51.360;7.340;2022-08-21T13:07:01;1.33;;;0.47;;
8036;SDS011;4061;51.360;7.340;2022-08-21T13:09:39;3.92;;;0.65;;
8036;SDS011;4061;51.360;7.340;2022-08-21T13:12:12;4.35;;;0.60;;
8036;SDS011;4061;51.360;7.340;2022-08-21T13:14:40;3.08;;;0.50;;
8036;SDS011;4061;51.360;7.340;2022-08-21T13:17:09;1.08;;;0.50;;
8036;SDS011;4061;51.360;7.340;2022-08-21T13:19:37;2.42;;;0.80;;
8036;SDS011;4061;51.360;7.340;2022-08-21T13:22:05;10.77;;;0.80;;
8036;SDS011;4061;51.360;7.340;2022-08-21T13:24:40;1.95;;;0.65;;
8036;SDS011;4061;51.360;7.340;2022-08-21T13:27:25;2.67;;;0.50;;
8036;SDS011;4061;51.360;7.340;2022-08-21T13:30:00;3.92;;;0.40;;
8036;SDS011;4061;51.360;7.340;2022-08-21T13:32:33;1.30;;;0.45;;
8036;SDS011;4061;51.360;7.340;2022-08-21T13:35:07;3.35;;;0.60;;
8036;SDS011;4061;51.360;7.340;2022-08-21T13:37:37;4.13;;;0.60;;
8036;SDS011;4061;51.360;7.340;2022-08-21T13:40:09;1.52;;;0.60;;
8036;SDS011;4061;51.360;7.340;2022-08-21T13:42:38;0.90;;;0.43;;
8036;SDS011;4061;51.360;7.340;2022-08-21T13:45:10;3.97;;;1.27;;
8036;SDS011;4061;51.360;7.340;2022-08-21T13:47:38;1.30;;;0.50;;
8036;SDS011;4061;51.360;7.340;2022-08-21T13:50:05;3.63;;;0.70;;
8036;SDS011;4061;51.360;7.340;2022-08-21T13:52:33;5.07;;;0.80;;
8036;SDS011;4061;51.360;7.340;2022-08-21T13:55:11;1.65;;;0.55;;
8036;SDS011;4061;51.360;7.340;2022-08-21T13:57:39;0.50;;;0.30;;
8036;SDS011;4061;51.360;7.340;2022-08-21T14:00:11;0.80;;;0.52;;
8036;SDS011;4061;51.360;7.340;2022-08-21T14:02:41;5.88;;;0.73;;
8036;SDS011;4061;51.360;7.340;2022-08-21T14:05:14;0.75;;;0.40;;
8036;SDS011;4061;51.360;7.340;2022-08-21T14:07:42;0.98;;;0.50;;
8036;SDS011;4061;51.360;7.340;2022-08-21T14:10:14;0.98;;;0.45;;
8036;SDS011;4061;51.360;7.340;2022-08-21T14:12:43;1.85;;;0.47;;
8036;SDS011;4061;51.360;7.340;2022-08-21T14:15:14;0.95;;;0.60;;
8036;SDS011;4061;51.360;7.340;2022-08-21T14:17:43;0.77;;;0.50;;
8036;SDS011;4061;51.360;7.340;2022-08-21T14:20:12;2.05;;;0.40;;
8036;SDS011;4061;51.360;7.340;2022-08-21T14:22:52;2.35;;;0.50;;
8036;SDS011;4061;51.360;7.340;2022-08-21T14:25:28;2.78;;;0.57;;
8036;SDS011;4061;51.360;7.340;2022-08-21T14:27:56;3.20;;;0.98;;
8036;SDS011;4061;51.360;7.340;2022-08-21T14:30:29;3.45;;;0.32;;
8036;SDS011;4061;51.360;7.340;2022-08-21T14:32:57;2.92;;;0.70;;
8036;SDS011;4061;51.360;7.340;2022-08-21T14:35:25;3.40;;;1.05;;
8036;SDS011;4061;51.360;7.340;2022-08-21T14:37:52;0.80;;;0.60;;
8036;SDS011;4061;51.360;7.340;2022-08-21T14:40:21;5.00;;;0.73;;
8036;SDS011;4061;51.360;7.340;2022-08-21T14:42:50;1.77;;;0.47;;
8036;SDS011;4061;51.360;7.340;2022-08-21T14:45:18;1.15;;;0.32;;
8036;SDS011;4061;51.360;7.340;2022-08-21T14:47:49;3.08;;;0.45;;
8036;SDS011;4061;51.360;7.340;2022-08-21T14:50:16;1.65;;;0.50;;
8036;SDS011;4061;51.360;7.340;2022-08-21T14:52:43;0.90;;;0.40;;
8036;SDS011;4061;51.360;7.340;2022-08-21T14:55:11;3.13;;;0.47;;
8036;SDS011;4061;51.360;7.340;2022-08-21T14:57:40;2.63;;;0.88;;
8036;SDS011;4061;51.360;7.340;2022-08-21T15:00:10;0.40;;;0.30;;
8036;SDS011;4061;51.360;7.340;2022-08-21T15:02:38;1.38;;;0.45;;
8036;SDS011;4061;51.360;7.340;2022-08-21T15:05:06;2.58;;;0.47;;
8036;SDS011;4061;51.360;7.340;2022-08-21T15:07:33;2.20;;;0.40;;
8036;SDS011;4061;51.360;7.340;2022-08-21T15:10:00;2.50;;;0.50;;
8036;SDS011;4061;51.360;7.340;2022-08-21T15:12:27;1.38;;;0.40;;
8036;SDS011;4061;51.360;7.340;2022-08-21T15:14:55;3.03;;;0.50;;
8036;SDS011;4061;51.360;7.340;2022-08-21T15:17:24;0.22;;;0.22;;
8036;SDS011;4061;51.360;7.340;2022-08-21T15:19:51;0.45;;;0.25;;
8036;SDS011;4061;51.360;7.340;2022-08-21T15:22:18;3.30;;;0.35;;
8036;SDS011;4061;51.360;7.340;2022-08-21T15:24:45;2.92;;;0.60;;
8036;SDS011;4061;51.360;7.340;2022-08-21T15:27:13;2.83;;;0.38;;
8036;SDS011;4061;51.360;7.340;2022-08-21T15:29:42;1.27;;;0.35;;
8036;SDS011;4061;51.360;7.340;2022-08-21T15:32:16;4.70;;;0.55;;